createdAt,value
2023-03-12T00:00:31.840Z,2.37
2023-03-12T00:02:58.206Z,2.27
2023-03-12T00:05:25.846Z,2.30
2023-03-12T00:07:52.559Z,2.57
2023-03-12T00:10:19.470Z,2.40
2023-03-12T00:12:46.188Z,2.37
2023-03-12T00:15:12.876Z,2.30
2023-03-12T00:17:39.238Z,2.33
2023-03-12T00:20:08.292Z,2.70
2023-03-12T00:22:34.797Z,2.47
2023-03-12T00:25:01.273Z,2.20
2023-03-12T00:27:27.761Z,2.93
2023-03-12T00:29:54.482Z,2.63
2023-03-12T00:32:20.818Z,2.73
2023-03-12T00:34:51.423Z,2.70
2023-03-12T00:37:17.751Z,2.63
2023-03-12T00:39:44.078Z,2.60
2023-03-12T00:42:10.389Z,2.50
2023-03-12T00:44:36.814Z,1.93
2023-03-12T00:47:03.292Z,2.50
2023-03-12T00:49:29.627Z,2.90
2023-03-12T00:51:55.945Z,3.43
2023-03-12T00:54:22.789Z,2.90
2023-03-12T00:56:49.284Z,3.50
2023-03-12T00:59:16.351Z,2.90
2023-03-12T01:01:44.081Z,3.20
2023-03-12T01:04:10.456Z,3.67
2023-03-12T01:06:36.856Z,3.30
2023-03-12T01:09:05.235Z,3.47
2023-03-12T01:11:32.789Z,3.40
2023-03-12T01:14:00.166Z,3.80
2023-03-12T01:16:28.331Z,3.73
2023-03-12T01:18:55.134Z,3.47
2023-03-12T01:21:21.584Z,3.27
2023-03-12T01:23:47.965Z,4.00
2023-03-12T01:26:14.799Z,3.23
2023-03-12T01:28:41.115Z,3.97
2023-03-12T01:31:08.897Z,3.80
2023-03-12T01:33:35.354Z,3.70
2023-03-12T01:36:01.833Z,4.17
2023-03-12T01:38:28.330Z,4.13
2023-03-12T01:40:54.653Z,3.60
2023-03-12T01:43:32.107Z,4.00
2023-03-12T01:46:00.559Z,3.90
2023-03-12T01:48:28.073Z,3.37
2023-03-12T01:50:54.587Z,3.97
2023-03-12T01:53:20.962Z,3.90
2023-03-12T01:55:47.428Z,3.47
2023-03-12T01:58:13.883Z,3.30
2023-03-12T02:00:40.234Z,4.17
2023-03-12T02:03:08.451Z,3.70
2023-03-12T02:05:40.898Z,4.20
2023-03-12T02:08:07.319Z,3.23
2023-03-12T02:10:33.650Z,3.10
2023-03-12T02:13:00.108Z,3.63
2023-03-12T02:15:26.844Z,3.53
2023-03-12T02:17:54.229Z,3.00
2023-03-12T02:20:22.426Z,3.13
2023-03-12T02:22:57.523Z,3.60
2023-03-12T02:25:30.905Z,2.90
2023-03-12T02:27:58.545Z,2.97
2023-03-12T02:30:25.528Z,3.03
2023-03-12T02:32:51.908Z,3.30
2023-03-12T02:35:19.352Z,3.10
2023-03-12T02:37:55.970Z,3.50
2023-03-12T02:40:25.279Z,3.23
2023-03-12T02:42:52.321Z,2.60
2023-03-12T02:45:18.710Z,3.33
2023-03-12T02:47:46.835Z,3.03
2023-03-12T02:50:13.197Z,3.40
2023-03-12T02:52:40.044Z,2.90
2023-03-12T02:55:07.233Z,2.87
2023-03-12T02:57:37.479Z,3.27
2023-03-12T03:00:09.888Z,3.00
2023-03-12T03:02:36.214Z,3.03
2023-03-12T03:05:02.616Z,2.77
2023-03-12T03:07:28.928Z,3.17
2023-03-12T03:09:55.386Z,3.17
2023-03-12T03:12:22.896Z,2.97
2023-03-12T03:14:49.178Z,2.60
2023-03-12T03:17:15.614Z,3.27
2023-03-12T03:19:42.060Z,3.20
2023-03-12T03:22:08.464Z,3.20
2023-03-12T03:24:36.216Z,2.80
2023-03-12T03:27:02.629Z,2.87
2023-03-12T03:29:28.943Z,3.07
2023-03-12T03:31:55.253Z,2.67
2023-03-12T03:34:21.554Z,3.00
2023-03-12T03:36:47.852Z,3.43
2023-03-12T03:39:14.238Z,3.10
2023-03-12T03:41:41.667Z,2.90
2023-03-12T03:44:08.058Z,2.60
2023-03-12T03:46:35.595Z,2.80
2023-03-12T03:49:02.005Z,3.03
2023-03-12T03:51:28.430Z,2.50
2023-03-12T03:53:54.860Z,2.23
2023-03-12T03:56:21.272Z,2.37
2023-03-12T03:58:47.614Z,2.80
2023-03-12T04:01:14.687Z,2.80
2023-03-12T04:03:41.531Z,2.50
2023-03-12T04:06:08.175Z,2.60
2023-03-12T04:08:35.573Z,2.60
2023-03-12T04:11:09.253Z,2.43
2023-03-12T04:13:35.737Z,2.73
2023-03-12T04:16:02.164Z,2.47
2023-03-12T04:18:29.982Z,2.73
2023-03-12T04:20:56.332Z,2.43
2023-03-12T04:23:22.646Z,2.37
2023-03-12T04:25:49.054Z,2.70
2023-03-12T04:28:15.556Z,2.33
2023-03-12T04:30:41.920Z,2.30
2023-03-12T04:33:08.375Z,2.67
2023-03-12T04:35:34.695Z,2.50
2023-03-12T04:38:01.506Z,2.13
2023-03-12T04:40:28.110Z,2.33
2023-03-12T04:42:54.507Z,2.23
2023-03-12T04:45:20.835Z,2.33
2023-03-12T04:47:47.207Z,2.97
2023-03-12T04:50:13.900Z,2.33
2023-03-12T04:52:40.282Z,3.00
2023-03-12T04:55:07.153Z,2.30
2023-03-12T04:57:33.596Z,2.63
2023-03-12T04:59:59.904Z,2.63
2023-03-12T05:02:26.288Z,3.60
2023-03-12T05:04:55.513Z,2.53
2023-03-12T05:07:21.957Z,3.13
2023-03-12T05:09:48.285Z,3.20
2023-03-12T05:12:14.824Z,3.20
2023-03-12T05:14:41.128Z,2.83
2023-03-12T05:17:07.535Z,3.87
2023-03-12T05:19:33.905Z,4.10
2023-03-12T05:22:00.423Z,3.70
2023-03-12T05:24:27.423Z,3.87
2023-03-12T05:26:53.765Z,3.47
2023-03-12T05:29:20.098Z,4.13
2023-03-12T05:31:46.554Z,3.53
2023-03-12T05:34:13.146Z,3.83
2023-03-12T05:36:39.812Z,4.67
2023-03-12T05:39:06.148Z,4.10
2023-03-12T05:41:33.511Z,4.03
2023-03-12T05:43:59.894Z,4.37
2023-03-12T05:46:26.976Z,4.40
2023-03-12T05:48:53.682Z,5.07
2023-03-12T05:51:20.189Z,4.47
2023-03-12T05:53:46.643Z,5.17
2023-03-12T05:56:14.738Z,5.27
2023-03-12T05:58:42.280Z,5.60
2023-03-12T06:01:16.356Z,5.27
2023-03-12T06:03:43.214Z,6.20
2023-03-12T06:06:09.860Z,6.20
2023-03-12T06:08:36.370Z,6.13
2023-03-12T06:11:02.934Z,6.17
2023-03-12T06:13:29.317Z,6.60
2023-03-12T06:16:01.646Z,5.90
2023-03-12T06:18:27.982Z,7.50
2023-03-12T06:20:54.285Z,6.13
2023-03-12T06:23:21.624Z,7.33
2023-03-12T06:25:47.977Z,6.17
2023-03-12T06:28:14.382Z,7.17
2023-03-12T06:30:40.708Z,7.70
2023-03-12T06:33:08.866Z,7.57
2023-03-12T06:35:35.215Z,8.13
2023-03-12T06:38:01.700Z,6.67
2023-03-12T06:40:28.028Z,8.60
2023-03-12T06:42:54.420Z,7.20
2023-03-12T06:45:20.764Z,7.10
2023-03-12T06:47:47.155Z,7.80
2023-03-12T06:50:13.504Z,7.50
2023-03-12T06:52:40.566Z,9.10
2023-03-12T06:55:07.126Z,7.63
2023-03-12T06:57:33.526Z,7.97
2023-03-12T06:59:59.836Z,8.03
2023-03-12T07:02:26.244Z,8.53
2023-03-12T07:04:52.673Z,8.43
2023-03-12T07:07:20.068Z,8.27
2023-03-12T07:09:46.491Z,7.30
2023-03-12T07:12:12.877Z,8.07
2023-03-12T07:14:39.184Z,8.33
2023-03-12T07:17:05.784Z,8.90
2023-03-12T07:19:32.186Z,8.23
2023-03-12T07:21:58.501Z,9.43
2023-03-12T07:24:24.927Z,10.37
2023-03-12T07:26:51.296Z,9.90
2023-03-12T07:29:17.730Z,9.33
2023-03-12T07:31:44.128Z,10.60
2023-03-12T07:34:10.650Z,11.17
2023-03-12T07:36:37.191Z,11.13
2023-03-12T07:39:04.575Z,10.50
2023-03-12T07:41:32.067Z,11.50
2023-03-12T07:43:58.418Z,12.37
2023-03-12T07:46:24.918Z,11.37
2023-03-12T07:48:51.271Z,10.70
2023-03-12T07:51:17.588Z,10.70
2023-03-12T07:53:44.339Z,12.23
2023-03-12T07:56:10.926Z,11.53
2023-03-12T07:58:38.617Z,10.13
2023-03-12T08:01:06.551Z,9.60
2023-03-12T08:03:33.058Z,10.90
2023-03-12T08:06:01.545Z,12.17
2023-03-12T08:08:28.428Z,12.00
2023-03-12T08:10:55.176Z,11.17
2023-03-12T08:13:23.691Z,12.37
2023-03-12T08:15:51.491Z,10.93
2023-03-12T08:18:18.461Z,10.37
2023-03-12T08:20:45.235Z,11.60
2023-03-12T08:23:12.043Z,11.53
2023-03-12T08:25:38.372Z,10.90
2023-03-12T08:28:04.887Z,12.13
2023-03-12T08:30:31.334Z,9.67
2023-03-12T08:32:58.045Z,10.07
2023-03-12T08:35:24.506Z,10.67
2023-03-12T08:37:50.893Z,11.13
2023-03-12T08:40:17.499Z,11.17
2023-03-12T08:42:46.955Z,10.40
2023-03-12T08:45:13.494Z,9.97
2023-03-12T08:47:41.671Z,9.77
2023-03-12T08:50:08.848Z,8.33
2023-03-12T08:52:35.261Z,8.50
2023-03-12T08:55:01.583Z,8.37
2023-03-12T08:57:28.163Z,6.97
2023-03-12T08:59:54.513Z,6.70
2023-03-12T09:02:20.792Z,6.83
2023-03-12T09:04:50.606Z,6.97
2023-03-12T09:07:19.631Z,6.30
2023-03-12T09:09:47.003Z,4.93
2023-03-12T09:12:13.403Z,4.93
2023-03-12T09:15:02.547Z,4.40
2023-03-12T09:17:28.286Z,3.93
2023-03-12T09:19:54.659Z,3.90
2023-03-12T09:22:21.159Z,3.87
2023-03-12T09:24:47.605Z,3.37
2023-03-12T09:27:14.110Z,3.43
2023-03-12T09:29:57.061Z,3.10
2023-03-12T09:32:27.279Z,3.13
2023-03-12T09:34:54.454Z,3.33
2023-03-12T09:37:23.757Z,2.93
2023-03-12T09:39:51.953Z,3.30
2023-03-12T09:42:31.280Z,3.80
2023-03-12T09:45:00.456Z,2.70
2023-03-12T09:47:29.604Z,3.00
2023-03-12T09:49:59.293Z,2.50
2023-03-12T09:52:29.224Z,3.07
2023-03-12T09:55:01.260Z,3.73
2023-03-12T09:57:29.864Z,3.57
2023-03-12T09:59:56.781Z,3.60
2023-03-12T10:02:29.294Z,3.03
2023-03-12T10:05:00.212Z,4.10
2023-03-12T10:07:27.830Z,3.47
2023-03-12T10:10:03.302Z,3.37
2023-03-12T10:12:47.395Z,4.30
2023-03-12T10:15:22.992Z,4.60
2023-03-12T10:18:10.253Z,3.80
2023-03-12T10:20:55.358Z,2.93
2023-03-12T10:23:28.034Z,3.30
2023-03-12T10:26:03.698Z,3.50
2023-03-12T10:28:36.152Z,4.50
2023-03-12T10:31:05.317Z,2.57
2023-03-12T10:33:44.727Z,2.60
2023-03-12T10:36:18.925Z,3.20
2023-03-12T10:38:45.513Z,3.33
2023-03-12T10:41:17.468Z,4.07
2023-03-12T10:43:45.128Z,4.20
2023-03-12T10:46:14.241Z,4.27
2023-03-12T10:48:41.107Z,3.53
2023-03-12T10:51:08.957Z,3.57
2023-03-12T10:53:38.354Z,3.83
2023-03-12T10:56:04.776Z,3.33
2023-03-12T10:58:32.090Z,3.43
2023-03-12T11:00:59.786Z,3.57
2023-03-12T11:03:26.743Z,4.20
2023-03-12T11:05:54.778Z,4.27
2023-03-12T11:08:23.687Z,4.40
2023-03-12T11:10:50.347Z,2.93
2023-03-12T11:13:25.584Z,4.10
2023-03-12T11:15:52.974Z,4.40
2023-03-12T11:18:25.446Z,3.40
2023-03-12T11:21:11.449Z,3.83
2023-03-12T11:23:39.407Z,3.57
2023-03-12T11:26:12.109Z,4.10
2023-03-12T11:28:42.989Z,4.10
2023-03-12T11:31:28.218Z,3.47
2023-03-12T11:33:57.545Z,3.87
2023-03-12T11:36:43.833Z,2.87
2023-03-12T11:39:28.976Z,3.63
2023-03-12T11:42:04.506Z,3.27
2023-03-12T11:44:39.976Z,3.53
2023-03-12T11:47:09.504Z,4.23
2023-03-12T11:49:44.987Z,4.27
2023-03-12T11:52:11.508Z,2.33
2023-03-12T11:54:56.196Z,4.27
2023-03-12T11:57:40.843Z,3.63
2023-03-12T12:00:14.598Z,3.17
2023-03-12T12:02:59.711Z,4.23
2023-03-12T12:05:26.106Z,3.50
2023-03-12T12:08:10.591Z,3.50
2023-03-12T12:10:36.868Z,4.20
2023-03-12T12:13:13.926Z,4.67
2023-03-12T12:15:58.890Z,6.40
2023-03-12T12:18:44.104Z,5.60
2023-03-12T12:21:16.550Z,4.53
2023-03-12T12:23:58.164Z,4.63
2023-03-12T12:26:36.730Z,3.77
2023-03-12T12:29:25.195Z,4.33
2023-03-12T12:31:55.361Z,3.60
2023-03-12T12:34:38.465Z,4.80
2023-03-12T12:37:20.787Z,3.40
2023-03-12T12:39:49.865Z,4.83
2023-03-12T12:42:20.818Z,4.87
2023-03-12T12:44:48.800Z,4.40
2023-03-12T12:47:18.571Z,3.77
2023-03-12T12:49:44.868Z,4.47
2023-03-12T12:52:12.830Z,4.37
2023-03-12T12:54:57.955Z,3.80
2023-03-12T12:57:35.368Z,4.27
2023-03-12T13:00:01.636Z,4.53
2023-03-12T13:02:30.882Z,4.10
2023-03-12T13:04:58.480Z,3.20
2023-03-12T13:07:27.745Z,4.17
2023-03-12T13:09:55.518Z,4.63
2023-03-12T13:12:58.257Z,4.57
2023-03-12T13:15:30.675Z,4.57
2023-03-12T13:17:59.848Z,3.93
2023-03-12T13:20:31.907Z,4.07
2023-03-12T13:23:03.703Z,4.03
2023-03-12T13:25:48.687Z,3.00
2023-03-12T13:28:30.245Z,4.23
2023-03-12T13:30:57.432Z,2.97
2023-03-12T13:33:38.902Z,4.37
2023-03-12T13:36:23.454Z,4.50
2023-03-12T13:39:08.204Z,4.90
2023-03-12T13:41:38.793Z,5.20
2023-03-12T13:44:23.360Z,3.80
2023-03-12T13:46:58.329Z,5.17
2023-03-12T13:49:25.168Z,4.07
2023-03-12T13:51:56.482Z,3.90
2023-03-12T13:54:25.361Z,3.53
2023-03-12T13:56:59.732Z,3.83
2023-03-12T13:59:27.190Z,4.30
2023-03-12T14:01:55.473Z,2.97
2023-03-12T14:04:28.974Z,4.80
2023-03-12T14:07:14.472Z,4.63
2023-03-12T14:09:46.950Z,3.13
2023-03-12T14:12:13.276Z,2.83
2023-03-12T14:14:41.458Z,5.83
2023-03-12T14:17:16.353Z,3.70
2023-03-12T14:19:45.784Z,5.13
2023-03-12T14:22:13.095Z,3.77
2023-03-12T14:24:41.221Z,3.73
2023-03-12T14:27:13.861Z,3.80
2023-03-12T14:29:55.519Z,3.80
2023-03-12T14:32:29.734Z,3.27
2023-03-12T14:35:08.265Z,3.63
2023-03-12T14:37:43.952Z,3.17
2023-03-12T14:40:44.604Z,3.37
2023-03-12T14:43:20.724Z,5.17
2023-03-12T14:45:49.610Z,4.30
2023-03-12T14:48:20.339Z,3.97
2023-03-12T14:50:48.613Z,4.17
2023-03-12T14:53:28.156Z,5.03
2023-03-12T14:56:01.656Z,5.17
2023-03-12T14:58:28.215Z,4.63
2023-03-12T15:00:57.607Z,4.90
2023-03-12T15:03:24.392Z,4.87
2023-03-12T15:05:51.866Z,4.20
2023-03-12T15:08:18.564Z,4.80
2023-03-12T15:11:03.059Z,3.50
2023-03-12T15:13:29.453Z,4.23
2023-03-12T15:15:56.075Z,4.60
2023-03-12T15:18:30.526Z,3.37
2023-03-12T15:20:57.743Z,3.93
2023-03-12T15:23:28.154Z,4.60
2023-03-12T15:26:09.942Z,4.93
2023-03-12T15:28:36.630Z,2.80
2023-03-12T15:31:11.798Z,5.07
2023-03-12T15:33:39.047Z,3.80
2023-03-12T15:36:17.148Z,3.57
2023-03-12T15:38:45.950Z,3.97
2023-03-12T15:41:18.524Z,3.63
2023-03-12T15:43:46.843Z,4.53
2023-03-12T15:46:13.988Z,4.17
2023-03-12T15:48:41.178Z,3.53
2023-03-12T15:51:14.676Z,3.87
2023-03-12T15:53:40.990Z,3.40
2023-03-12T15:56:09.019Z,4.10
2023-03-12T15:58:36.456Z,3.87
2023-03-12T16:01:12.901Z,4.20
2023-03-12T16:03:40.095Z,3.90
2023-03-12T16:06:10.874Z,3.80
2023-03-12T16:08:43.677Z,4.13
2023-03-12T16:11:14.374Z,4.97
2023-03-12T16:13:42.005Z,5.17
2023-03-12T16:16:11.416Z,5.03
2023-03-12T16:18:37.850Z,5.40
2023-03-12T16:21:04.447Z,4.63
2023-03-12T16:23:30.742Z,4.33
2023-03-12T16:25:57.658Z,4.60
2023-03-12T16:28:24.978Z,4.47
2023-03-12T16:30:51.677Z,3.97
2023-03-12T16:33:19.487Z,5.00
2023-03-12T16:35:47.347Z,4.17
2023-03-12T16:38:13.814Z,4.43
2023-03-12T16:40:48.126Z,5.03
2023-03-12T16:43:21.685Z,4.37
2023-03-12T16:45:48.878Z,4.80
2023-03-12T16:48:20.943Z,4.30
2023-03-12T16:50:51.397Z,4.33
2023-03-12T16:53:19.061Z,4.40
2023-03-12T16:55:47.254Z,5.27
2023-03-12T16:58:15.203Z,3.90
2023-03-12T17:00:42.463Z,4.23
2023-03-12T17:03:15.739Z,4.47
2023-03-12T17:05:42.080Z,3.90
2023-03-12T17:08:08.785Z,5.20
2023-03-12T17:10:35.114Z,3.73
2023-03-12T17:13:01.486Z,5.30
2023-03-12T17:15:30.640Z,5.40
2023-03-12T17:17:59.038Z,4.53
2023-03-12T17:20:25.483Z,5.40
2023-03-12T17:22:51.853Z,3.57
2023-03-12T17:25:23.453Z,4.87
2023-03-12T17:27:50.344Z,4.87
2023-03-12T17:30:17.343Z,4.60
2023-03-12T17:32:43.794Z,4.43
2023-03-12T17:35:10.566Z,4.27
2023-03-12T17:37:36.898Z,4.33
2023-03-12T17:40:08.296Z,4.33
2023-03-12T17:42:35.147Z,2.90
2023-03-12T17:45:01.923Z,2.73
2023-03-12T17:47:30.836Z,2.97
2023-03-12T17:49:57.419Z,3.40
2023-03-12T17:52:24.392Z,2.97
2023-03-12T17:54:50.974Z,2.50
2023-03-12T17:57:17.272Z,3.03
2023-03-12T17:59:43.690Z,2.07
2023-03-12T18:02:10.940Z,3.33
2023-03-12T18:04:37.353Z,2.20
2023-03-12T18:07:04.837Z,2.83
2023-03-12T18:09:31.305Z,2.47
2023-03-12T18:11:57.755Z,3.13
2023-03-12T18:14:24.115Z,2.30
2023-03-12T18:16:50.418Z,3.07
2023-03-12T18:19:17.049Z,2.40
2023-03-12T18:21:43.379Z,2.30
2023-03-12T18:24:14.021Z,3.40
2023-03-12T18:26:41.057Z,2.87
2023-03-12T18:29:07.503Z,2.70
2023-03-12T18:31:33.920Z,3.07
2023-03-12T18:34:00.266Z,3.03
2023-03-12T18:36:29.415Z,3.10
2023-03-12T18:38:55.749Z,3.37
2023-03-12T18:41:22.535Z,2.50
2023-03-12T18:43:48.986Z,3.83
2023-03-12T18:46:15.458Z,2.93
2023-03-12T18:48:44.024Z,3.30
2023-03-12T18:51:10.605Z,2.67
2023-03-12T18:53:37.001Z,3.27
2023-03-12T18:56:03.439Z,4.43
2023-03-12T18:58:29.833Z,3.23
2023-03-12T19:00:57.235Z,2.47
2023-03-12T19:03:24.377Z,4.00
2023-03-12T19:06:00.481Z,2.90
2023-03-12T19:08:26.790Z,2.37
2023-03-12T19:10:53.295Z,4.53
2023-03-12T19:13:19.625Z,2.87
2023-03-12T19:15:46.131Z,3.20
2023-03-12T19:18:12.545Z,2.70
2023-03-12T19:20:38.954Z,3.60
2023-03-12T19:23:05.320Z,2.70
2023-03-12T19:25:32.089Z,2.67
2023-03-12T19:27:58.504Z,3.07
2023-03-12T19:30:30.405Z,2.77
2023-03-12T19:32:56.851Z,2.53
2023-03-12T19:35:23.206Z,3.57
2023-03-12T19:37:49.533Z,3.13
2023-03-12T19:40:15.971Z,2.67
2023-03-12T19:42:42.447Z,2.87
2023-03-12T19:45:09.226Z,3.13
2023-03-12T19:47:35.679Z,2.50
2023-03-12T19:50:02.151Z,2.10
2023-03-12T19:52:28.588Z,2.00
2023-03-12T19:55:04.410Z,2.50
2023-03-12T19:57:31.551Z,2.00
2023-03-12T19:59:59.170Z,2.63
2023-03-12T20:02:26.304Z,2.77
2023-03-12T20:04:55.484Z,3.07
2023-03-12T20:07:21.892Z,2.97
2023-03-12T20:09:48.375Z,2.87
2023-03-12T20:12:14.713Z,2.70
2023-03-12T20:14:42.768Z,2.87
2023-03-12T20:17:09.976Z,2.90
2023-03-12T20:19:36.626Z,3.50
2023-03-12T20:22:03.048Z,2.40
2023-03-12T20:24:29.435Z,1.93
2023-03-12T20:26:55.868Z,3.03
2023-03-12T20:29:22.189Z,2.77
2023-03-12T20:31:48.566Z,1.73
2023-03-12T20:34:14.988Z,3.20
2023-03-12T20:36:41.436Z,3.57
2023-03-12T20:39:07.881Z,3.50
2023-03-12T20:41:35.069Z,3.27
2023-03-12T20:44:01.514Z,3.20
2023-03-12T20:46:27.921Z,3.53
2023-03-12T20:48:56.621Z,4.57
2023-03-12T20:51:24.698Z,3.30
2023-03-12T20:53:51.120Z,3.50
2023-03-12T20:56:18.507Z,3.13
2023-03-12T20:58:44.902Z,3.00
2023-03-12T21:01:11.345Z,2.67
2023-03-12T21:03:37.788Z,3.17
2023-03-12T21:06:04.233Z,2.40
2023-03-12T21:08:30.722Z,2.97
2023-03-12T21:10:57.145Z,3.50
2023-03-12T21:13:23.520Z,3.17
2023-03-12T21:15:50.156Z,2.87
2023-03-12T21:18:17.092Z,2.83
2023-03-12T21:20:44.007Z,3.27
2023-03-12T21:23:10.872Z,2.83
2023-03-12T21:25:38.085Z,3.23
2023-03-12T21:28:05.119Z,3.20
2023-03-12T21:30:31.645Z,4.00
2023-03-12T21:32:58.074Z,3.00
2023-03-12T21:35:24.590Z,3.17
2023-03-12T21:37:51.020Z,2.67
2023-03-12T21:40:17.530Z,2.73
2023-03-12T21:42:44.826Z,2.40
2023-03-12T21:45:11.298Z,3.07
2023-03-12T21:47:38.255Z,2.30
2023-03-12T21:50:05.218Z,4.57
2023-03-12T21:52:33.570Z,2.40
2023-03-12T21:54:59.883Z,3.20
2023-03-12T21:57:26.472Z,3.37
2023-03-12T21:59:52.877Z,3.10
2023-03-12T22:02:19.235Z,3.13
2023-03-12T22:04:45.588Z,3.13
2023-03-12T22:07:11.902Z,3.67
2023-03-12T22:09:38.218Z,3.37
2023-03-12T22:12:04.722Z,3.93
2023-03-12T22:14:31.050Z,3.27
2023-03-12T22:17:08.255Z,3.97
2023-03-12T22:19:34.618Z,3.33
2023-03-12T22:22:00.886Z,3.10
2023-03-12T22:24:27.280Z,3.13
2023-03-12T22:26:53.701Z,3.73
2023-03-12T22:29:20.072Z,3.30
2023-03-12T22:31:46.363Z,3.60
2023-03-12T22:34:12.993Z,3.17
2023-03-12T22:36:39.778Z,3.83
2023-03-12T22:39:06.257Z,3.83
2023-03-12T22:41:32.978Z,3.70
2023-03-12T22:44:07.160Z,3.83
2023-03-12T22:46:33.690Z,3.47
2023-03-12T22:49:01.198Z,3.47
2023-03-12T22:51:28.390Z,3.90
2023-03-12T22:53:54.820Z,3.87
2023-03-12T22:56:21.784Z,4.03
2023-03-12T22:58:48.860Z,3.53
2023-03-12T23:01:16.495Z,3.40
2023-03-12T23:03:43.645Z,3.63
2023-03-12T23:06:20.025Z,4.03
2023-03-12T23:08:47.849Z,4.97
2023-03-12T23:11:14.822Z,4.50
2023-03-12T23:13:42.376Z,4.70
2023-03-12T23:16:10.293Z,4.47
2023-03-12T23:18:38.281Z,4.13
2023-03-12T23:21:06.170Z,4.90
2023-03-12T23:23:32.864Z,4.60
2023-03-12T23:26:00.125Z,3.97
2023-03-12T23:28:27.393Z,4.20
2023-03-12T23:30:55.197Z,4.37
2023-03-12T23:33:21.753Z,4.33
2023-03-12T23:35:55.370Z,4.30
2023-03-12T23:38:21.963Z,5.00
2023-03-12T23:40:48.489Z,3.30
2023-03-12T23:43:14.948Z,4.70
2023-03-12T23:45:41.417Z,3.57
2023-03-12T23:48:10.440Z,3.90
2023-03-12T23:50:36.829Z,3.83
2023-03-12T23:53:03.392Z,3.00
2023-03-12T23:55:29.733Z,3.83
2023-03-12T23:57:56.037Z,4.03
